sensor_id;sensor_type;location;lat;lon;timestamp;P1;durP1;ratioP1;P2;durP2;ratioP2
85081;SDS011;75424;50.762;7.178;2024-03-08T00:02:23;19.55;;;12.07;;
85081;SDS011;75424;50.762;7.178;2024-03-08T00:04:48;18.45;;;11.77;;
85081;SDS011;75424;50.762;7.178;2024-03-08T00:07:14;22.48;;;13.20;;
85081;SDS011;75424;50.762;7.178;2024-03-08T00:09:39;20.50;;;12.10;;
85081;SDS011;75424;50.762;7.178;2024-03-08T00:12:05;24.80;;;13.80;;
85081;SDS011;75424;50.762;7.178;2024-03-08T00:14:31;18.92;;;11.80;;
85081;SDS011;75424;50.762;7.178;2024-03-08T00:16:57;21.38;;;13.27;;
85081;SDS011;75424;50.762;7.178;2024-03-08T00:19:22;20.83;;;12.38;;
85081;SDS011;75424;50.762;7.178;2024-03-08T00:21:48;22.87;;;12.27;;
85081;SDS011;75424;50.762;7.178;2024-03-08T00:24:13;21.38;;;13.00;;
85081;SDS011;75424;50.762;7.178;2024-03-08T00:26:38;20.60;;;12.25;;
85081;SDS011;75424;50.762;7.178;2024-03-08T00:29:04;19.70;;;11.88;;
85081;SDS011;75424;50.762;7.178;2024-03-08T00:31:29;24.20;;;13.00;;
85081;SDS011;75424;50.762;7.178;2024-03-08T00:33:56;23.20;;;12.63;;
85081;SDS011;75424;50.762;7.178;2024-03-08T00:36:22;21.30;;;11.02;;
85081;SDS011;75424;50.762;7.178;2024-03-08T00:38:48;22.55;;;12.63;;
85081;SDS011;75424;50.762;7.178;2024-03-08T00:41:13;22.58;;;12.23;;
85081;SDS011;75424;50.762;7.178;2024-03-08T00:43:38;21.95;;;11.88;;
85081;SDS011;75424;50.762;7.178;2024-03-08T00:46:04;21.07;;;12.87;;
85081;SDS011;75424;50.762;7.178;2024-03-08T00:48:29;20.98;;;12.10;;
85081;SDS011;75424;50.762;7.178;2024-03-08T00:50:56;22.83;;;12.40;;
85081;SDS011;75424;50.762;7.178;2024-03-08T00:53:22;21.27;;;12.35;;
85081;SDS011;75424;50.762;7.178;2024-03-08T00:55:47;30.10;;;14.02;;
85081;SDS011;75424;50.762;7.178;2024-03-08T00:58:13;24.27;;;13.32;;
85081;SDS011;75424;50.762;7.178;2024-03-08T01:00:38;21.92;;;13.02;;
85081;SDS011;75424;50.762;7.178;2024-03-08T01:03:04;22.52;;;12.07;;
85081;SDS011;75424;50.762;7.178;2024-03-08T01:05:30;23.58;;;12.30;;
85081;SDS011;75424;50.762;7.178;2024-03-08T01:07:56;21.17;;;11.90;;
85081;SDS011;75424;50.762;7.178;2024-03-08T01:10:21;24.27;;;12.75;;
85081;SDS011;75424;50.762;7.178;2024-03-08T01:12:46;22.80;;;12.25;;
85081;SDS011;75424;50.762;7.178;2024-03-08T01:15:12;22.20;;;12.35;;
85081;SDS011;75424;50.762;7.178;2024-03-08T01:17:37;24.95;;;11.93;;
85081;SDS011;75424;50.762;7.178;2024-03-08T01:20:04;26.20;;;11.80;;
85081;SDS011;75424;50.762;7.178;2024-03-08T01:22:30;23.15;;;12.43;;
85081;SDS011;75424;50.762;7.178;2024-03-08T01:24:56;23.10;;;12.10;;
85081;SDS011;75424;50.762;7.178;2024-03-08T01:27:22;25.25;;;14.07;;
85081;SDS011;75424;50.762;7.178;2024-03-08T01:29:47;24.10;;;12.70;;
85081;SDS011;75424;50.762;7.178;2024-03-08T01:32:13;23.65;;;12.68;;
85081;SDS011;75424;50.762;7.178;2024-03-08T01:34:38;21.95;;;12.85;;
85081;SDS011;75424;50.762;7.178;2024-03-08T01:37:04;22.80;;;12.35;;
85081;SDS011;75424;50.762;7.178;2024-03-08T01:39:29;23.30;;;11.98;;
85081;SDS011;75424;50.762;7.178;2024-03-08T01:41:55;18.73;;;11.23;;
85081;SDS011;75424;50.762;7.178;2024-03-08T01:44:20;24.67;;;12.60;;
85081;SDS011;75424;50.762;7.178;2024-03-08T01:46:46;23.92;;;13.02;;
85081;SDS011;75424;50.762;7.178;2024-03-08T01:49:14;20.95;;;11.73;;
85081;SDS011;75424;50.762;7.178;2024-03-08T01:51:40;23.02;;;12.55;;
85081;SDS011;75424;50.762;7.178;2024-03-08T01:54:06;22.13;;;12.13;;
85081;SDS011;75424;50.762;7.178;2024-03-08T01:56:35;24.60;;;12.65;;
85081;SDS011;75424;50.762;7.178;2024-03-08T01:59:03;22.70;;;12.30;;
85081;SDS011;75424;50.762;7.178;2024-03-08T02:01:29;22.17;;;11.50;;
85081;SDS011;75424;50.762;7.178;2024-03-08T02:03:55;27.52;;;13.15;;
85081;SDS011;75424;50.762;7.178;2024-03-08T02:06:20;23.73;;;12.50;;
85081;SDS011;75424;50.762;7.178;2024-03-08T02:08:45;23.93;;;12.40;;
85081;SDS011;75424;50.762;7.178;2024-03-08T02:11:11;22.80;;;11.52;;
85081;SDS011;75424;50.762;7.178;2024-03-08T02:13:37;23.35;;;12.40;;
85081;SDS011;75424;50.762;7.178;2024-03-08T02:16:03;21.08;;;12.07;;
85081;SDS011;75424;50.762;7.178;2024-03-08T02:18:29;25.27;;;13.80;;
85081;SDS011;75424;50.762;7.178;2024-03-08T02:21:00;18.85;;;11.43;;
85081;SDS011;75424;50.762;7.178;2024-03-08T02:23:27;25.63;;;13.10;;
85081;SDS011;75424;50.762;7.178;2024-03-08T02:25:53;21.80;;;12.30;;
85081;SDS011;75424;50.762;7.178;2024-03-08T02:28:20;22.33;;;12.63;;
85081;SDS011;75424;50.762;7.178;2024-03-08T02:30:46;22.90;;;12.23;;
85081;SDS011;75424;50.762;7.178;2024-03-08T02:33:15;22.13;;;11.52;;
85081;SDS011;75424;50.762;7.178;2024-03-08T02:35:42;27.20;;;12.93;;
85081;SDS011;75424;50.762;7.178;2024-03-08T02:38:19;24.35;;;11.10;;
85081;SDS011;75424;50.762;7.178;2024-03-08T02:40:47;24.20;;;12.38;;
85081;SDS011;75424;50.762;7.178;2024-03-08T02:43:16;23.08;;;11.13;;
85081;SDS011;75424;50.762;7.178;2024-03-08T02:45:42;28.25;;;13.35;;
85081;SDS011;75424;50.762;7.178;2024-03-08T02:48:09;23.70;;;12.55;;
85081;SDS011;75424;50.762;7.178;2024-03-08T02:50:36;21.30;;;11.23;;
85081;SDS011;75424;50.762;7.178;2024-03-08T02:53:02;21.88;;;12.75;;
85081;SDS011;75424;50.762;7.178;2024-03-08T02:55:28;23.17;;;11.98;;
85081;SDS011;75424;50.762;7.178;2024-03-08T02:57:54;19.77;;;12.40;;
85081;SDS011;75424;50.762;7.178;2024-03-08T03:00:20;24.52;;;13.48;;
85081;SDS011;75424;50.762;7.178;2024-03-08T03:02:46;25.23;;;13.43;;
85081;SDS011;75424;50.762;7.178;2024-03-08T03:05:11;22.20;;;11.77;;
85081;SDS011;75424;50.762;7.178;2024-03-08T03:07:37;22.73;;;12.80;;
85081;SDS011;75424;50.762;7.178;2024-03-08T03:10:03;24.05;;;12.30;;
85081;SDS011;75424;50.762;7.178;2024-03-08T03:12:29;23.63;;;13.02;;
85081;SDS011;75424;50.762;7.178;2024-03-08T03:14:55;25.63;;;13.73;;
85081;SDS011;75424;50.762;7.178;2024-03-08T03:17:21;26.67;;;13.32;;
85081;SDS011;75424;50.762;7.178;2024-03-08T03:19:50;26.52;;;12.25;;
85081;SDS011;75424;50.762;7.178;2024-03-08T03:22:16;22.60;;;11.35;;
85081;SDS011;75424;50.762;7.178;2024-03-08T03:24:43;24.15;;;12.30;;
85081;SDS011;75424;50.762;7.178;2024-03-08T03:27:08;23.58;;;13.00;;
85081;SDS011;75424;50.762;7.178;2024-03-08T03:29:38;24.77;;;12.45;;
85081;SDS011;75424;50.762;7.178;2024-03-08T03:32:13;19.70;;;11.88;;
85081;SDS011;75424;50.762;7.178;2024-03-08T03:34:39;22.75;;;12.18;;
85081;SDS011;75424;50.762;7.178;2024-03-08T03:37:06;22.00;;;11.63;;
85081;SDS011;75424;50.762;7.178;2024-03-08T03:39:37;26.10;;;12.15;;
85081;SDS011;75424;50.762;7.178;2024-03-08T03:42:14;24.30;;;12.65;;
85081;SDS011;75424;50.762;7.178;2024-03-08T03:44:40;27.27;;;13.18;;
85081;SDS011;75424;50.762;7.178;2024-03-08T03:47:05;27.13;;;11.98;;
85081;SDS011;75424;50.762;7.178;2024-03-08T03:49:31;22.50;;;12.00;;
85081;SDS011;75424;50.762;7.178;2024-03-08T03:51:58;25.08;;;13.00;;
85081;SDS011;75424;50.762;7.178;2024-03-08T03:54:23;24.33;;;12.20;;
85081;SDS011;75424;50.762;7.178;2024-03-08T03:56:48;23.75;;;12.57;;
85081;SDS011;75424;50.762;7.178;2024-03-08T03:59:17;23.38;;;12.52;;
85081;SDS011;75424;50.762;7.178;2024-03-08T04:01:43;25.38;;;11.40;;
85081;SDS011;75424;50.762;7.178;2024-03-08T04:04:08;24.23;;;11.85;;
85081;SDS011;75424;50.762;7.178;2024-03-08T04:06:34;24.48;;;12.27;;
85081;SDS011;75424;50.762;7.178;2024-03-08T04:08:59;25.90;;;12.95;;
85081;SDS011;75424;50.762;7.178;2024-03-08T04:11:24;24.00;;;12.17;;
85081;SDS011;75424;50.762;7.178;2024-03-08T04:13:49;26.47;;;13.30;;
85081;SDS011;75424;50.762;7.178;2024-03-08T04:16:15;25.17;;;12.43;;
85081;SDS011;75424;50.762;7.178;2024-03-08T04:18:40;28.35;;;12.63;;
85081;SDS011;75424;50.762;7.178;2024-03-08T04:21:06;26.23;;;12.80;;
85081;SDS011;75424;50.762;7.178;2024-03-08T04:23:34;22.33;;;12.82;;
85081;SDS011;75424;50.762;7.178;2024-03-08T04:26:03;24.25;;;13.00;;
85081;SDS011;75424;50.762;7.178;2024-03-08T04:28:29;23.38;;;11.80;;
85081;SDS011;75424;50.762;7.178;2024-03-08T04:30:54;26.17;;;13.27;;
85081;SDS011;75424;50.762;7.178;2024-03-08T04:33:20;25.67;;;12.95;;
85081;SDS011;75424;50.762;7.178;2024-03-08T04:35:46;22.05;;;12.80;;
85081;SDS011;75424;50.762;7.178;2024-03-08T04:38:12;25.92;;;13.38;;
85081;SDS011;75424;50.762;7.178;2024-03-08T04:40:37;25.10;;;13.23;;
85081;SDS011;75424;50.762;7.178;2024-03-08T04:43:03;27.47;;;13.40;;
85081;SDS011;75424;50.762;7.178;2024-03-08T04:45:28;25.88;;;13.43;;
85081;SDS011;75424;50.762;7.178;2024-03-08T04:47:53;24.67;;;12.60;;
85081;SDS011;75424;50.762;7.178;2024-03-08T04:50:19;25.40;;;12.85;;
85081;SDS011;75424;50.762;7.178;2024-03-08T04:52:44;24.77;;;13.63;;
85081;SDS011;75424;50.762;7.178;2024-03-08T04:55:09;23.27;;;11.57;;
85081;SDS011;75424;50.762;7.178;2024-03-08T04:57:35;22.23;;;12.53;;
85081;SDS011;75424;50.762;7.178;2024-03-08T05:00:02;24.77;;;13.23;;
85081;SDS011;75424;50.762;7.178;2024-03-08T05:02:29;25.17;;;12.75;;
85081;SDS011;75424;50.762;7.178;2024-03-08T05:04:54;24.47;;;12.40;;
85081;SDS011;75424;50.762;7.178;2024-03-08T05:07:20;27.50;;;14.25;;
85081;SDS011;75424;50.762;7.178;2024-03-08T05:09:45;23.37;;;11.57;;
85081;SDS011;75424;50.762;7.178;2024-03-08T05:12:16;22.75;;;11.85;;
85081;SDS011;75424;50.762;7.178;2024-03-08T05:14:42;22.45;;;12.68;;
85081;SDS011;75424;50.762;7.178;2024-03-08T05:17:07;26.60;;;14.23;;
85081;SDS011;75424;50.762;7.178;2024-03-08T05:19:32;25.00;;;13.20;;
85081;SDS011;75424;50.762;7.178;2024-03-08T05:21:58;24.63;;;13.25;;
85081;SDS011;75424;50.762;7.178;2024-03-08T05:24:24;27.33;;;13.05;;
85081;SDS011;75424;50.762;7.178;2024-03-08T05:26:49;24.93;;;13.17;;
85081;SDS011;75424;50.762;7.178;2024-03-08T05:29:15;26.08;;;12.45;;
85081;SDS011;75424;50.762;7.178;2024-03-08T05:31:47;23.58;;;13.30;;
85081;SDS011;75424;50.762;7.178;2024-03-08T05:34:14;22.05;;;11.65;;
85081;SDS011;75424;50.762;7.178;2024-03-08T05:36:41;29.60;;;13.20;;
85081;SDS011;75424;50.762;7.178;2024-03-08T05:39:09;29.08;;;13.93;;
85081;SDS011;75424;50.762;7.178;2024-03-08T05:41:36;26.58;;;12.88;;
85081;SDS011;75424;50.762;7.178;2024-03-08T05:44:02;25.95;;;12.38;;
85081;SDS011;75424;50.762;7.178;2024-03-08T05:46:27;28.63;;;14.43;;
85081;SDS011;75424;50.762;7.178;2024-03-08T05:48:53;22.57;;;12.63;;
85081;SDS011;75424;50.762;7.178;2024-03-08T05:51:19;27.50;;;14.02;;
85081;SDS011;75424;50.762;7.178;2024-03-08T05:53:46;27.80;;;12.65;;
85081;SDS011;75424;50.762;7.178;2024-03-08T05:56:11;24.07;;;12.57;;
85081;SDS011;75424;50.762;7.178;2024-03-08T05:58:36;33.13;;;14.83;;
85081;SDS011;75424;50.762;7.178;2024-03-08T06:01:02;23.93;;;12.20;;
85081;SDS011;75424;50.762;7.178;2024-03-08T06:03:27;25.13;;;12.60;;
85081;SDS011;75424;50.762;7.178;2024-03-08T06:05:52;26.43;;;12.83;;
85081;SDS011;75424;50.762;7.178;2024-03-08T06:08:18;30.48;;;13.70;;
85081;SDS011;75424;50.762;7.178;2024-03-08T06:10:44;25.02;;;12.35;;
85081;SDS011;75424;50.762;7.178;2024-03-08T06:13:09;28.40;;;13.07;;
85081;SDS011;75424;50.762;7.178;2024-03-08T06:15:37;26.08;;;14.02;;
85081;SDS011;75424;50.762;7.178;2024-03-08T06:18:02;25.97;;;13.57;;
85081;SDS011;75424;50.762;7.178;2024-03-08T06:20:27;28.02;;;13.77;;
85081;SDS011;75424;50.762;7.178;2024-03-08T06:22:53;28.67;;;13.80;;
85081;SDS011;75424;50.762;7.178;2024-03-08T06:25:18;24.92;;;13.77;;
85081;SDS011;75424;50.762;7.178;2024-03-08T06:27:44;27.08;;;13.30;;
85081;SDS011;75424;50.762;7.178;2024-03-08T06:30:11;32.50;;;14.57;;
85081;SDS011;75424;50.762;7.178;2024-03-08T06:32:37;27.02;;;14.10;;
85081;SDS011;75424;50.762;7.178;2024-03-08T06:35:03;24.17;;;12.20;;
85081;SDS011;75424;50.762;7.178;2024-03-08T06:37:31;25.67;;;13.63;;
85081;SDS011;75424;50.762;7.178;2024-03-08T06:39:59;27.00;;;12.65;;
85081;SDS011;75424;50.762;7.178;2024-03-08T06:42:26;29.52;;;12.85;;
85081;SDS011;75424;50.762;7.178;2024-03-08T06:44:52;27.27;;;14.10;;
85081;SDS011;75424;50.762;7.178;2024-03-08T06:47:20;23.50;;;13.07;;
85081;SDS011;75424;50.762;7.178;2024-03-08T06:49:46;26.83;;;13.68;;
85081;SDS011;75424;50.762;7.178;2024-03-08T06:52:11;28.50;;;13.32;;
85081;SDS011;75424;50.762;7.178;2024-03-08T06:54:37;26.13;;;13.63;;
85081;SDS011;75424;50.762;7.178;2024-03-08T06:57:05;24.67;;;13.02;;
85081;SDS011;75424;50.762;7.178;2024-03-08T06:59:31;25.85;;;14.23;;
85081;SDS011;75424;50.762;7.178;2024-03-08T07:01:56;30.58;;;14.40;;
85081;SDS011;75424;50.762;7.178;2024-03-08T07:04:22;27.07;;;14.13;;
85081;SDS011;75424;50.762;7.178;2024-03-08T07:06:51;26.73;;;12.68;;
85081;SDS011;75424;50.762;7.178;2024-03-08T07:09:17;26.83;;;13.27;;
85081;SDS011;75424;50.762;7.178;2024-03-08T07:11:42;25.23;;;12.80;;
85081;SDS011;75424;50.762;7.178;2024-03-08T07:14:08;29.83;;;14.70;;
85081;SDS011;75424;50.762;7.178;2024-03-08T07:16:33;27.08;;;12.90;;
85081;SDS011;75424;50.762;7.178;2024-03-08T07:19:00;25.73;;;12.82;;
85081;SDS011;75424;50.762;7.178;2024-03-08T07:21:26;25.02;;;12.32;;
85081;SDS011;75424;50.762;7.178;2024-03-08T07:23:51;26.23;;;13.02;;
85081;SDS011;75424;50.762;7.178;2024-03-08T07:26:25;24.17;;;13.55;;
85081;SDS011;75424;50.762;7.178;2024-03-08T07:28:51;31.58;;;15.00;;
85081;SDS011;75424;50.762;7.178;2024-03-08T07:31:16;23.52;;;12.65;;
85081;SDS011;75424;50.762;7.178;2024-03-08T07:33:50;25.00;;;12.90;;
85081;SDS011;75424;50.762;7.178;2024-03-08T07:36:16;28.40;;;13.63;;
85081;SDS011;75424;50.762;7.178;2024-03-08T07:38:41;25.92;;;15.27;;
85081;SDS011;75424;50.762;7.178;2024-03-08T07:41:06;26.80;;;14.90;;
85081;SDS011;75424;50.762;7.178;2024-03-08T07:43:32;25.40;;;13.48;;
85081;SDS011;75424;50.762;7.178;2024-03-08T07:46:00;27.30;;;14.82;;
85081;SDS011;75424;50.762;7.178;2024-03-08T07:48:26;24.83;;;12.48;;
85081;SDS011;75424;50.762;7.178;2024-03-08T07:50:52;26.52;;;13.80;;
85081;SDS011;75424;50.762;7.178;2024-03-08T07:53:17;23.98;;;13.25;;
85081;SDS011;75424;50.762;7.178;2024-03-08T07:55:42;23.35;;;11.90;;
85081;SDS011;75424;50.762;7.178;2024-03-08T07:58:09;26.50;;;13.90;;
85081;SDS011;75424;50.762;7.178;2024-03-08T08:00:36;22.58;;;12.27;;
85081;SDS011;75424;50.762;7.178;2024-03-08T08:03:01;24.70;;;12.50;;
85081;SDS011;75424;50.762;7.178;2024-03-08T08:05:27;23.83;;;13.88;;
85081;SDS011;75424;50.762;7.178;2024-03-08T08:07:52;25.33;;;13.03;;
85081;SDS011;75424;50.762;7.178;2024-03-08T08:10:18;24.00;;;12.90;;
85081;SDS011;75424;50.762;7.178;2024-03-08T08:12:49;25.65;;;13.38;;
85081;SDS011;75424;50.762;7.178;2024-03-08T08:15:14;22.23;;;12.88;;
85081;SDS011;75424;50.762;7.178;2024-03-08T08:17:41;22.02;;;14.18;;
85081;SDS011;75424;50.762;7.178;2024-03-08T08:20:07;24.60;;;13.00;;
85081;SDS011;75424;50.762;7.178;2024-03-08T08:22:34;21.67;;;12.52;;
85081;SDS011;75424;50.762;7.178;2024-03-08T08:24:59;23.77;;;12.93;;
85081;SDS011;75424;50.762;7.178;2024-03-08T08:27:25;25.13;;;12.50;;
85081;SDS011;75424;50.762;7.178;2024-03-08T08:29:51;26.85;;;13.98;;
85081;SDS011;75424;50.762;7.178;2024-03-08T08:32:16;23.67;;;12.73;;
85081;SDS011;75424;50.762;7.178;2024-03-08T08:34:43;25.42;;;13.27;;
85081;SDS011;75424;50.762;7.178;2024-03-08T08:37:09;23.80;;;12.95;;
85081;SDS011;75424;50.762;7.178;2024-03-08T08:39:34;21.08;;;12.63;;
85081;SDS011;75424;50.762;7.178;2024-03-08T08:42:00;24.35;;;11.77;;
85081;SDS011;75424;50.762;7.178;2024-03-08T08:44:25;23.15;;;12.77;;
85081;SDS011;75424;50.762;7.178;2024-03-08T08:46:50;23.65;;;12.15;;
85081;SDS011;75424;50.762;7.178;2024-03-08T08:49:16;23.45;;;11.35;;
85081;SDS011;75424;50.762;7.178;2024-03-08T08:51:51;22.50;;;13.35;;
85081;SDS011;75424;50.762;7.178;2024-03-08T08:54:17;21.25;;;10.85;;
85081;SDS011;75424;50.762;7.178;2024-03-08T08:56:43;18.60;;;10.15;;
85081;SDS011;75424;50.762;7.178;2024-03-08T08:59:09;18.15;;;10.95;;
85081;SDS011;75424;50.762;7.178;2024-03-08T09:01:38;22.05;;;10.93;;
85081;SDS011;75424;50.762;7.178;2024-03-08T09:04:04;19.70;;;10.60;;
85081;SDS011;75424;50.762;7.178;2024-03-08T09:06:29;16.13;;;10.23;;
85081;SDS011;75424;50.762;7.178;2024-03-08T09:08:55;18.27;;;9.75;;
85081;SDS011;75424;50.762;7.178;2024-03-08T09:11:20;19.33;;;10.53;;
85081;SDS011;75424;50.762;7.178;2024-03-08T09:13:45;17.33;;;9.97;;
85081;SDS011;75424;50.762;7.178;2024-03-08T09:16:11;16.52;;;9.82;;
85081;SDS011;75424;50.762;7.178;2024-03-08T09:18:37;18.27;;;10.33;;
85081;SDS011;75424;50.762;7.178;2024-03-08T09:21:02;15.15;;;9.35;;
85081;SDS011;75424;50.762;7.178;2024-03-08T09:23:28;15.15;;;9.23;;
85081;SDS011;75424;50.762;7.178;2024-03-08T09:25:58;16.92;;;8.32;;
85081;SDS011;75424;50.762;7.178;2024-03-08T09:28:24;16.00;;;9.80;;
85081;SDS011;75424;50.762;7.178;2024-03-08T09:30:50;18.17;;;9.90;;
85081;SDS011;75424;50.762;7.178;2024-03-08T09:33:15;16.98;;;9.13;;
85081;SDS011;75424;50.762;7.178;2024-03-08T09:35:44;13.13;;;9.10;;
85081;SDS011;75424;50.762;7.178;2024-03-08T09:38:12;15.70;;;9.73;;
85081;SDS011;75424;50.762;7.178;2024-03-08T09:40:38;14.63;;;8.43;;
85081;SDS011;75424;50.762;7.178;2024-03-08T09:43:06;13.70;;;8.45;;
85081;SDS011;75424;50.762;7.178;2024-03-08T09:45:31;16.83;;;9.73;;
85081;SDS011;75424;50.762;7.178;2024-03-08T09:48:01;14.65;;;9.20;;
85081;SDS011;75424;50.762;7.178;2024-03-08T09:50:26;14.00;;;8.32;;
85081;SDS011;75424;50.762;7.178;2024-03-08T09:52:54;14.00;;;8.13;;
85081;SDS011;75424;50.762;7.178;2024-03-08T09:55:22;14.25;;;8.98;;
85081;SDS011;75424;50.762;7.178;2024-03-08T09:57:47;15.15;;;9.02;;
85081;SDS011;75424;50.762;7.178;2024-03-08T10:00:33;11.57;;;7.47;;
85081;SDS011;75424;50.762;7.178;2024-03-08T10:03:02;14.77;;;8.23;;
85081;SDS011;75424;50.762;7.178;2024-03-08T10:05:28;17.13;;;8.40;;
85081;SDS011;75424;50.762;7.178;2024-03-08T10:07:54;14.05;;;8.65;;
85081;SDS011;75424;50.762;7.178;2024-03-08T10:10:20;11.73;;;7.80;;
85081;SDS011;75424;50.762;7.178;2024-03-08T10:12:46;14.20;;;8.63;;
85081;SDS011;75424;50.762;7.178;2024-03-08T10:15:14;15.35;;;9.25;;
85081;SDS011;75424;50.762;7.178;2024-03-08T10:17:41;14.50;;;8.90;;
85081;SDS011;75424;50.762;7.178;2024-03-08T10:20:17;13.43;;;8.48;;
85081;SDS011;75424;50.762;7.178;2024-03-08T10:22:44;13.15;;;8.02;;
85081;SDS011;75424;50.762;7.178;2024-03-08T10:25:10;12.82;;;9.30;;
85081;SDS011;75424;50.762;7.178;2024-03-08T10:27:37;12.88;;;7.85;;
85081;SDS011;75424;50.762;7.178;2024-03-08T10:30:05;13.25;;;7.80;;
85081;SDS011;75424;50.762;7.178;2024-03-08T10:32:38;14.00;;;8.52;;
85081;SDS011;75424;50.762;7.178;2024-03-08T10:35:06;12.30;;;8.25;;
85081;SDS011;75424;50.762;7.178;2024-03-08T10:37:37;15.15;;;9.77;;
85081;SDS011;75424;50.762;7.178;2024-03-08T10:40:05;10.38;;;7.22;;
85081;SDS011;75424;50.762;7.178;2024-03-08T10:42:41;13.65;;;6.78;;
85081;SDS011;75424;50.762;7.178;2024-03-08T10:47:55;11.63;;;7.53;;
85081;SDS011;75424;50.762;7.178;2024-03-08T10:50:29;13.43;;;8.48;;
85081;SDS011;75424;50.762;7.178;2024-03-08T10:52:59;14.30;;;8.55;;
85081;SDS011;75424;50.762;7.178;2024-03-08T10:55:26;15.13;;;7.75;;
85081;SDS011;75424;50.762;7.178;2024-03-08T10:57:53;14.52;;;8.82;;
85081;SDS011;75424;50.762;7.178;2024-03-08T11:00:19;12.57;;;7.97;;
85081;SDS011;75424;50.762;7.178;2024-03-08T11:02:51;15.93;;;8.27;;
85081;SDS011;75424;50.762;7.178;2024-03-08T11:08:17;15.20;;;9.73;;
85081;SDS011;75424;50.762;7.178;2024-03-08T11:10:49;14.93;;;8.57;;
85081;SDS011;75424;50.762;7.178;2024-03-08T11:13:33;11.85;;;7.40;;
85081;SDS011;75424;50.762;7.178;2024-03-08T11:16:02;12.32;;;7.65;;
85081;SDS011;75424;50.762;7.178;2024-03-08T11:18:32;17.08;;;8.60;;
85081;SDS011;75424;50.762;7.178;2024-03-08T11:21:02;12.80;;;7.60;;
85081;SDS011;75424;50.762;7.178;2024-03-08T11:23:32;14.18;;;8.60;;
85081;SDS011;75424;50.762;7.178;2024-03-08T11:25:58;17.30;;;9.40;;
85081;SDS011;75424;50.762;7.178;2024-03-08T11:28:25;13.07;;;7.68;;
85081;SDS011;75424;50.762;7.178;2024-03-08T11:33:27;12.82;;;8.25;;
85081;SDS011;75424;50.762;7.178;2024-03-08T11:38:49;14.40;;;9.18;;
85081;SDS011;75424;50.762;7.178;2024-03-08T11:41:17;13.13;;;8.50;;
85081;SDS011;75424;50.762;7.178;2024-03-08T11:43:45;13.65;;;8.55;;
85081;SDS011;75424;50.762;7.178;2024-03-08T11:46:10;15.50;;;7.95;;
85081;SDS011;75424;50.762;7.178;2024-03-08T11:48:38;14.80;;;8.50;;
85081;SDS011;75424;50.762;7.178;2024-03-08T11:51:06;16.23;;;8.18;;
85081;SDS011;75424;50.762;7.178;2024-03-08T11:53:33;11.32;;;7.63;;
85081;SDS011;75424;50.762;7.178;2024-03-08T11:56:06;12.02;;;7.43;;
85081;SDS011;75424;50.762;7.178;2024-03-08T11:58:34;12.85;;;7.43;;
85081;SDS011;75424;50.762;7.178;2024-03-08T12:01:04;13.85;;;7.10;;
85081;SDS011;75424;50.762;7.178;2024-03-08T12:03:30;14.35;;;7.65;;
85081;SDS011;75424;50.762;7.178;2024-03-08T12:05:58;10.88;;;6.43;;
85081;SDS011;75424;50.762;7.178;2024-03-08T12:08:24;14.35;;;8.10;;
85081;SDS011;75424;50.762;7.178;2024-03-08T12:10:53;12.90;;;7.22;;
85081;SDS011;75424;50.762;7.178;2024-03-08T12:13:25;10.88;;;6.35;;
85081;SDS011;75424;50.762;7.178;2024-03-08T12:15:54;12.10;;;7.55;;
85081;SDS011;75424;50.762;7.178;2024-03-08T12:18:24;14.10;;;8.10;;
85081;SDS011;75424;50.762;7.178;2024-03-08T12:20:51;14.90;;;8.32;;
85081;SDS011;75424;50.762;7.178;2024-03-08T12:23:16;10.45;;;6.68;;
85081;SDS011;75424;50.762;7.178;2024-03-08T12:25:42;11.30;;;6.47;;
85081;SDS011;75424;50.762;7.178;2024-03-08T12:28:07;11.02;;;7.40;;
85081;SDS011;75424;50.762;7.178;2024-03-08T12:30:48;11.48;;;7.22;;
85081;SDS011;75424;50.762;7.178;2024-03-08T12:33:17;10.75;;;6.93;;
85081;SDS011;75424;50.762;7.178;2024-03-08T12:35:50;11.20;;;6.90;;
85081;SDS011;75424;50.762;7.178;2024-03-08T12:38:18;9.48;;;6.88;;
85081;SDS011;75424;50.762;7.178;2024-03-08T12:40:49;10.98;;;6.85;;
85081;SDS011;75424;50.762;7.178;2024-03-08T12:43:14;12.15;;;6.55;;
85081;SDS011;75424;50.762;7.178;2024-03-08T12:45:40;12.32;;;7.18;;
85081;SDS011;75424;50.762;7.178;2024-03-08T12:48:12;12.27;;;7.30;;
85081;SDS011;75424;50.762;7.178;2024-03-08T12:50:40;13.65;;;7.80;;
85081;SDS011;75424;50.762;7.178;2024-03-08T12:53:08;10.85;;;6.32;;
85081;SDS011;75424;50.762;7.178;2024-03-08T12:55:34;10.02;;;6.40;;
85081;SDS011;75424;50.762;7.178;2024-03-08T12:57:59;8.05;;;5.75;;
85081;SDS011;75424;50.762;7.178;2024-03-08T13:00:25;10.55;;;6.85;;
85081;SDS011;75424;50.762;7.178;2024-03-08T13:02:53;10.05;;;6.25;;
85081;SDS011;75424;50.762;7.178;2024-03-08T13:05:18;9.30;;;6.47;;
85081;SDS011;75424;50.762;7.178;2024-03-08T13:07:44;10.43;;;6.35;;
85081;SDS011;75424;50.762;7.178;2024-03-08T13:10:17;10.55;;;6.90;;
85081;SDS011;75424;50.762;7.178;2024-03-08T13:12:45;11.18;;;6.68;;
85081;SDS011;75424;50.762;7.178;2024-03-08T13:15:10;9.52;;;6.30;;
85081;SDS011;75424;50.762;7.178;2024-03-08T13:17:43;9.10;;;6.10;;
85081;SDS011;75424;50.762;7.178;2024-03-08T13:20:11;10.60;;;6.45;;
85081;SDS011;75424;50.762;7.178;2024-03-08T13:22:41;12.88;;;6.97;;
85081;SDS011;75424;50.762;7.178;2024-03-08T13:25:07;9.35;;;6.10;;
85081;SDS011;75424;50.762;7.178;2024-03-08T13:27:38;11.25;;;6.72;;
85081;SDS011;75424;50.762;7.178;2024-03-08T13:30:05;9.70;;;5.95;;
85081;SDS011;75424;50.762;7.178;2024-03-08T13:32:32;10.50;;;6.68;;
85081;SDS011;75424;50.762;7.178;2024-03-08T13:34:57;10.45;;;6.53;;
85081;SDS011;75424;50.762;7.178;2024-03-08T13:37:22;10.90;;;7.22;;
85081;SDS011;75424;50.762;7.178;2024-03-08T13:39:48;9.85;;;6.38;;
85081;SDS011;75424;50.762;7.178;2024-03-08T13:42:13;11.23;;;6.97;;
85081;SDS011;75424;50.762;7.178;2024-03-08T13:44:48;10.75;;;6.72;;
85081;SDS011;75424;50.762;7.178;2024-03-08T13:47:18;10.35;;;6.47;;
85081;SDS011;75424;50.762;7.178;2024-03-08T13:49:44;11.50;;;6.25;;
85081;SDS011;75424;50.762;7.178;2024-03-08T13:52:11;10.00;;;6.47;;
85081;SDS011;75424;50.762;7.178;2024-03-08T13:54:40;11.07;;;6.43;;
85081;SDS011;75424;50.762;7.178;2024-03-08T13:57:05;8.70;;;5.80;;
85081;SDS011;75424;50.762;7.178;2024-03-08T13:59:32;10.02;;;6.68;;
85081;SDS011;75424;50.762;7.178;2024-03-08T14:02:01;11.73;;;6.93;;
85081;SDS011;75424;50.762;7.178;2024-03-08T14:04:30;10.93;;;6.45;;
85081;SDS011;75424;50.762;7.178;2024-03-08T14:07:29;8.52;;;5.88;;
85081;SDS011;75424;50.762;7.178;2024-03-08T14:10:11;9.30;;;5.82;;
85081;SDS011;75424;50.762;7.178;2024-03-08T14:12:41;12.07;;;6.63;;
85081;SDS011;75424;50.762;7.178;2024-03-08T14:15:08;11.43;;;6.50;;
85081;SDS011;75424;50.762;7.178;2024-03-08T14:17:34;10.63;;;6.43;;
85081;SDS011;75424;50.762;7.178;2024-03-08T14:20:00;8.27;;;6.00;;
85081;SDS011;75424;50.762;7.178;2024-03-08T14:22:26;10.18;;;6.65;;
85081;SDS011;75424;50.762;7.178;2024-03-08T14:24:51;9.57;;;5.88;;
85081;SDS011;75424;50.762;7.178;2024-03-08T14:27:17;8.45;;;5.82;;
85081;SDS011;75424;50.762;7.178;2024-03-08T14:29:52;10.55;;;6.03;;
85081;SDS011;75424;50.762;7.178;2024-03-08T14:32:19;10.30;;;7.07;;
85081;SDS011;75424;50.762;7.178;2024-03-08T14:34:48;10.45;;;6.75;;
85081;SDS011;75424;50.762;7.178;2024-03-08T14:37:15;9.68;;;6.32;;